createdAt,value
2023-04-22T00:00:28.874Z,11.10
2023-04-22T00:02:56.553Z,11.10
2023-04-22T00:05:23.679Z,11.10
2023-04-22T00:07:50.899Z,11.10
2023-04-22T00:10:17.968Z,11.10
2023-04-22T00:12:44.933Z,11.10
2023-04-22T00:15:12.309Z,11.10
2023-04-22T00:17:40.451Z,11.10
2023-04-22T00:20:08.201Z,11.10
2023-04-22T00:22:35.311Z,11.10
2023-04-22T00:25:02.272Z,11.10
2023-04-22T00:27:29.391Z,11.10
2023-04-22T00:29:56.455Z,11.10
2023-04-22T00:32:23.658Z,11.10
2023-04-22T00:34:51.355Z,11.10
2023-04-22T00:37:18.455Z,11.10
2023-04-22T00:39:45.656Z,11.10
2023-04-22T00:42:14.121Z,11.10
2023-04-22T00:44:42.479Z,11.10
2023-04-22T00:47:10.028Z,11.00
2023-04-22T00:49:37.603Z,11.00
2023-04-22T00:52:05.053Z,11.00
2023-04-22T00:54:34.504Z,11.00
2023-04-22T00:57:03.022Z,11.00
2023-04-22T00:59:30.286Z,11.00
2023-04-22T01:01:58.088Z,11.00
2023-04-22T01:04:25.860Z,11.00
2023-04-22T01:06:56.477Z,10.90
2023-04-22T01:09:23.886Z,10.90
2023-04-22T01:11:51.151Z,11.00
2023-04-22T01:14:18.308Z,10.90
2023-04-22T01:16:46.477Z,11.00
2023-04-22T01:19:13.777Z,10.90
2023-04-22T01:21:43.351Z,10.90
2023-04-22T01:24:10.897Z,10.90
2023-04-22T01:26:38.241Z,10.90
2023-04-22T01:29:06.281Z,10.80
2023-04-22T01:31:33.702Z,10.80
2023-04-22T01:34:01.470Z,10.80
2023-04-22T01:36:28.985Z,10.80
2023-04-22T01:38:56.684Z,10.80
2023-04-22T01:41:26.973Z,10.60
2023-04-22T01:43:54.726Z,10.50
2023-04-22T01:46:21.707Z,10.50
2023-04-22T01:48:51.622Z,10.60
2023-04-22T01:51:23.785Z,10.60
2023-04-22T01:53:51.213Z,10.60
2023-04-22T01:56:18.782Z,10.60
2023-04-22T01:58:46.102Z,10.50
2023-04-22T02:01:14.394Z,10.50
2023-04-22T02:03:41.855Z,10.50
2023-04-22T02:06:11.112Z,10.60
2023-04-22T02:08:38.467Z,10.60
2023-04-22T02:11:05.938Z,10.50
2023-04-22T02:13:41.291Z,10.50
2023-04-22T02:16:08.652Z,10.50
2023-04-22T02:18:35.982Z,10.50
2023-04-22T02:21:03.229Z,10.50
2023-04-22T02:23:30.519Z,10.50
2023-04-22T02:25:57.940Z,10.50
2023-04-22T02:28:24.970Z,10.40
2023-04-22T02:30:52.170Z,10.40
2023-04-22T02:33:19.192Z,10.30
2023-04-22T02:35:46.667Z,10.30
2023-04-22T02:38:18.616Z,10.30
2023-04-22T02:40:46.478Z,10.30
2023-04-22T02:43:13.439Z,10.30
2023-04-22T02:45:41.048Z,10.30
2023-04-22T02:48:08.585Z,10.30
2023-04-22T02:50:36.500Z,10.20
2023-04-22T02:53:03.672Z,10.20
2023-04-22T02:55:30.664Z,10.20
2023-04-22T02:57:57.747Z,10.10
2023-04-22T03:00:24.800Z,10.10
2023-04-22T03:02:52.172Z,10.10
2023-04-22T03:05:22.874Z,10.00
2023-04-22T03:07:50.510Z,10.00
2023-04-22T03:10:17.619Z,10.00
2023-04-22T03:12:44.931Z,10.00
2023-04-22T03:15:12.750Z,9.90
2023-04-22T03:17:39.798Z,9.90
2023-04-22T03:20:11.746Z,9.90
2023-04-22T03:22:38.937Z,9.90
2023-04-22T03:25:08.032Z,9.90
2023-04-22T03:27:35.136Z,9.90
2023-04-22T03:30:02.591Z,9.80
2023-04-22T03:32:29.705Z,9.90
2023-04-22T03:35:13.927Z,9.80
2023-04-22T03:37:41.160Z,9.80
2023-04-22T03:40:13.487Z,9.80
2023-04-22T03:42:40.908Z,9.80
2023-04-22T03:45:08.433Z,9.70
2023-04-22T03:47:40.082Z,9.70
2023-04-22T03:50:18.149Z,9.70
2023-04-22T03:52:45.665Z,9.70
2023-04-22T03:55:13.526Z,9.70
2023-04-22T03:57:41.090Z,9.70
2023-04-22T04:00:08.618Z,9.70
2023-04-22T04:02:41.698Z,9.70
2023-04-22T04:05:12.587Z,9.70
2023-04-22T04:07:41.154Z,9.70
2023-04-22T04:10:08.766Z,9.60
2023-04-22T04:12:35.921Z,9.70
2023-04-22T04:15:03.210Z,9.70
2023-04-22T04:17:30.650Z,9.60
2023-04-22T04:19:58.108Z,9.70
2023-04-22T04:22:28.049Z,9.60
2023-04-22T04:24:59.118Z,9.60
2023-04-22T04:27:31.549Z,9.70
2023-04-22T04:29:58.871Z,9.60
2023-04-22T04:32:45.645Z,9.70
2023-04-22T04:35:14.883Z,9.60
2023-04-22T04:37:46.891Z,9.70
2023-04-22T04:40:14.951Z,9.70
2023-04-22T04:42:47.714Z,9.70
2023-04-22T04:45:20.843Z,9.70
2023-04-22T04:47:50.825Z,9.70
2023-04-22T04:50:23.131Z,9.80
2023-04-22T04:52:52.812Z,9.80
2023-04-22T04:55:25.609Z,9.80
2023-04-22T04:57:53.221Z,9.80
2023-04-22T05:00:20.497Z,9.90
2023-04-22T05:02:48.249Z,9.90
2023-04-22T05:05:15.686Z,9.90
2023-04-22T05:07:43.867Z,10.00
2023-04-22T05:10:13.333Z,10.10
2023-04-22T05:12:46.267Z,10.10
2023-04-22T05:15:17.680Z,10.20
2023-04-22T05:17:44.800Z,10.30
2023-04-22T05:20:12.100Z,10.40
2023-04-22T05:22:43.252Z,10.50
2023-04-22T05:25:11.008Z,10.70
2023-04-22T05:27:42.818Z,10.70
2023-04-22T05:30:11.562Z,10.80
2023-04-22T05:32:39.114Z,10.90
2023-04-22T05:35:07.022Z,11.00
2023-04-22T05:37:34.320Z,11.10
2023-04-22T05:40:01.490Z,11.10
2023-04-22T05:42:28.745Z,11.20
2023-04-22T05:44:55.829Z,11.40
2023-04-22T05:47:23.021Z,11.60
2023-04-22T05:49:50.550Z,11.70
2023-04-22T05:52:24.127Z,11.90
2023-04-22T05:55:03.958Z,12.00
2023-04-22T05:57:31.977Z,12.10
2023-04-22T06:00:01.201Z,12.30
2023-04-22T06:02:28.542Z,12.40
2023-04-22T06:04:57.420Z,12.50
2023-04-22T06:07:24.968Z,12.70
2023-04-22T06:09:59.356Z,12.90
2023-04-22T06:12:31.362Z,13.10
2023-04-22T06:14:58.385Z,13.30
2023-04-22T06:17:25.469Z,13.40
2023-04-22T06:19:53.522Z,13.60
2023-04-22T06:22:21.945Z,13.80
2023-04-22T06:24:49.044Z,14.00
2023-04-22T06:27:16.380Z,14.10
2023-04-22T06:29:43.488Z,14.30
2023-04-22T06:32:11.756Z,14.30
2023-04-22T06:34:39.255Z,14.40
2023-04-22T06:37:06.740Z,14.60
2023-04-22T06:39:33.974Z,14.60
2023-04-22T06:42:22.617Z,14.90
2023-04-22T06:45:12.788Z,15.10
2023-04-22T06:47:55.967Z,15.30
2023-04-22T06:50:29.277Z,15.50
2023-04-22T06:52:58.644Z,15.50
2023-04-22T06:55:25.802Z,15.60
2023-04-22T06:57:53.022Z,15.60
2023-04-22T07:00:20.373Z,15.80
2023-04-22T07:02:47.511Z,15.90
2023-04-22T07:05:15.866Z,16.10
2023-04-22T07:07:43.904Z,16.10
2023-04-22T07:10:17.293Z,16.20
2023-04-22T07:13:03.146Z,16.30
2023-04-22T07:15:30.298Z,16.30
2023-04-22T07:17:57.410Z,16.40
2023-04-22T07:20:24.557Z,16.50
2023-04-22T07:22:52.534Z,16.60
2023-04-22T07:25:19.562Z,16.60
2023-04-22T07:27:46.700Z,16.70
2023-04-22T07:30:14.045Z,16.90
2023-04-22T07:32:41.247Z,16.90
2023-04-22T07:35:08.850Z,17.10
2023-04-22T07:37:36.006Z,17.20
2023-04-22T07:40:03.160Z,17.30
2023-04-22T07:42:30.307Z,17.30
2023-04-22T07:44:57.341Z,17.50
2023-04-22T07:47:24.418Z,17.60
2023-04-22T07:49:51.461Z,17.60
2023-04-22T07:52:19.822Z,17.70
2023-04-22T07:54:46.912Z,17.80
2023-04-22T07:57:13.874Z,18.00
2023-04-22T07:59:41.188Z,18.10
2023-04-22T08:02:08.505Z,18.00
2023-04-22T08:04:35.848Z,18.00
2023-04-22T08:07:17.069Z,18.00
2023-04-22T08:09:51.051Z,18.10
2023-04-22T08:12:18.423Z,18.10
2023-04-22T08:14:45.529Z,18.30
2023-04-22T08:17:12.685Z,18.40
2023-04-22T08:19:40.073Z,18.60
2023-04-22T08:22:07.448Z,18.70
2023-04-22T08:24:34.544Z,18.70
2023-04-22T08:27:02.538Z,18.50
2023-04-22T08:29:29.603Z,18.60
2023-04-22T08:31:56.569Z,18.80
2023-04-22T08:34:24.969Z,19.00
2023-04-22T08:36:52.277Z,19.10
2023-04-22T08:39:19.685Z,19.20
2023-04-22T08:41:47.530Z,19.20
2023-04-22T08:44:15.454Z,19.20
2023-04-22T08:46:49.146Z,19.30
2023-04-22T08:49:16.423Z,19.20
2023-04-22T08:51:44.624Z,19.20
2023-04-22T08:54:12.233Z,19.30
2023-04-22T08:56:45.355Z,19.40
2023-04-22T08:59:13.339Z,19.50
2023-04-22T09:01:42.123Z,19.50
2023-04-22T09:04:15.282Z,19.60
2023-04-22T09:06:42.438Z,19.70
2023-04-22T09:09:09.542Z,19.70
2023-04-22T09:11:37.375Z,19.70
2023-04-22T09:14:07.810Z,19.80
2023-04-22T09:16:43.075Z,19.90
2023-04-22T09:19:14.056Z,20.00
2023-04-22T09:21:45.168Z,20.00
2023-04-22T09:24:13.352Z,20.00
2023-04-22T09:26:42.008Z,20.10
2023-04-22T09:29:14.534Z,20.00
2023-04-22T09:31:41.584Z,20.00
2023-04-22T09:34:09.119Z,20.00
2023-04-22T09:36:38.867Z,20.00
2023-04-22T09:39:08.309Z,20.00
2023-04-22T09:41:40.229Z,20.20
2023-04-22T09:44:14.885Z,20.30
2023-04-22T09:46:43.802Z,20.30
2023-04-22T09:49:11.652Z,20.40
2023-04-22T09:51:42.494Z,20.40
2023-04-22T09:54:11.808Z,20.40
2023-04-22T09:56:52.738Z,20.40
2023-04-22T09:59:32.165Z,20.60
2023-04-22T10:02:03.540Z,20.80
2023-04-22T10:04:31.528Z,20.80
2023-04-22T10:06:59.865Z,20.80
2023-04-22T10:09:26.871Z,20.90
2023-04-22T10:11:58.155Z,20.70
2023-04-22T10:14:26.086Z,20.80
2023-04-22T10:16:58.145Z,20.20
2023-04-22T10:19:27.100Z,19.90
2023-04-22T10:21:57.217Z,19.60
2023-04-22T10:24:27.611Z,19.60
2023-04-22T10:26:57.269Z,20.10
2023-04-22T10:29:26.175Z,20.10
2023-04-22T10:32:03.723Z,20.00
2023-04-22T10:34:34.189Z,20.40
2023-04-22T10:37:06.342Z,20.80
2023-04-22T10:39:33.600Z,21.00
2023-04-22T10:42:03.631Z,21.30
2023-04-22T10:44:45.273Z,21.40
2023-04-22T10:47:12.633Z,20.70
2023-04-22T10:49:39.967Z,20.40
2023-04-22T10:52:08.799Z,20.20
2023-04-22T10:54:38.638Z,20.20
2023-04-22T10:57:20.106Z,20.00
2023-04-22T10:59:50.539Z,20.20
2023-04-22T11:02:19.225Z,20.20
2023-04-22T11:04:47.227Z,20.30
2023-04-22T11:07:23.067Z,20.10
2023-04-22T11:09:51.890Z,20.00
2023-04-22T11:12:40.169Z,20.00
2023-04-22T11:15:15.847Z,19.80
2023-04-22T11:17:45.588Z,19.70
2023-04-22T11:20:14.341Z,19.60
2023-04-22T11:22:44.191Z,19.50
2023-04-22T11:25:11.514Z,19.40
2023-04-22T11:27:43.796Z,19.30
2023-04-22T11:30:12.356Z,19.30
2023-04-22T11:32:47.533Z,19.20
2023-04-22T11:35:18.183Z,19.20
2023-04-22T11:37:47.815Z,19.20
2023-04-22T11:40:31.634Z,19.20
2023-04-22T11:43:02.240Z,19.20
2023-04-22T11:45:31.204Z,19.30
2023-04-22T11:47:58.814Z,19.40
2023-04-22T11:50:28.497Z,19.50
2023-04-22T11:52:56.490Z,20.30
2023-04-22T11:55:26.045Z,20.80
2023-04-22T11:57:59.927Z,21.30
2023-04-22T12:00:35.091Z,21.30
2023-04-22T12:03:04.555Z,21.60
2023-04-22T12:05:52.819Z,21.50
2023-04-22T12:08:24.913Z,21.50
2023-04-22T12:10:57.839Z,21.50
2023-04-22T12:13:37.545Z,21.60
2023-04-22T12:16:18.138Z,21.40
2023-04-22T12:18:48.341Z,20.90
2023-04-22T12:21:17.460Z,20.50
2023-04-22T12:23:51.794Z,20.50
2023-04-22T12:26:20.584Z,20.50
2023-04-22T12:28:48.417Z,20.40
2023-04-22T12:31:16.364Z,20.30
2023-04-22T12:33:44.577Z,20.30
2023-04-22T12:36:11.978Z,20.30
2023-04-22T12:38:39.801Z,20.10
2023-04-22T12:41:08.139Z,20.10
2023-04-22T12:43:39.394Z,20.00
2023-04-22T12:46:08.042Z,20.00
2023-04-22T12:48:38.887Z,20.00
2023-04-22T12:51:07.000Z,19.90
2023-04-22T12:53:34.531Z,19.90
2023-04-22T12:56:01.726Z,19.90
2023-04-22T12:58:28.942Z,19.90
2023-04-22T13:00:56.085Z,19.90
2023-04-22T13:03:23.270Z,19.90
2023-04-22T13:05:50.990Z,19.90
2023-04-22T13:08:18.456Z,20.00
2023-04-22T13:10:45.588Z,19.90
2023-04-22T13:15:42.482Z,19.80
2023-04-22T13:18:09.527Z,19.80
2023-04-22T13:20:36.898Z,19.80
2023-04-22T13:23:04.888Z,20.00
2023-04-22T13:25:32.162Z,19.90
2023-04-22T13:27:59.248Z,19.90
2023-04-22T13:30:26.400Z,19.90
2023-04-22T13:32:53.627Z,20.00
2023-04-22T13:35:20.902Z,19.90
2023-04-22T13:37:47.981Z,19.90
2023-04-22T13:40:15.150Z,19.90
2023-04-22T13:42:42.934Z,19.90
2023-04-22T13:45:10.298Z,19.90
2023-04-22T13:47:37.285Z,19.90
2023-04-22T13:50:08.658Z,20.00
2023-04-22T13:52:35.881Z,20.40
2023-04-22T13:55:06.947Z,20.80
2023-04-22T13:57:34.089Z,21.30
2023-04-22T14:00:01.270Z,21.40
2023-04-22T14:02:28.257Z,21.70
2023-04-22T14:04:55.379Z,21.70
2023-04-22T14:07:22.450Z,21.70
2023-04-22T14:09:49.464Z,21.80
2023-04-22T14:12:16.751Z,21.80
2023-04-22T14:14:43.826Z,21.90
2023-04-22T14:17:11.357Z,21.90
2023-04-22T14:19:39.688Z,22.10
2023-04-22T14:22:06.923Z,22.20
2023-04-22T14:24:34.113Z,22.10
2023-04-22T14:27:04.515Z,22.10
2023-04-22T14:29:32.050Z,22.10
2023-04-22T14:31:59.529Z,21.90
2023-04-22T14:34:27.366Z,21.50
2023-04-22T14:36:54.530Z,21.10
2023-04-22T14:39:21.683Z,21.10
2023-04-22T14:41:49.102Z,20.90
2023-04-22T14:44:16.204Z,20.80
2023-04-22T14:46:43.197Z,21.10
2023-04-22T14:49:10.183Z,21.20
2023-04-22T14:51:37.336Z,21.20
2023-04-22T14:54:04.850Z,21.00
2023-04-22T14:56:32.325Z,20.80
2023-04-22T14:58:59.300Z,20.70
2023-04-22T15:01:26.422Z,20.70
2023-04-22T15:03:53.598Z,20.70
2023-04-22T15:06:20.794Z,20.60
2023-04-22T15:08:47.744Z,20.50
2023-04-22T15:11:14.834Z,20.50
2023-04-22T15:13:41.782Z,20.50
2023-04-22T15:16:08.863Z,20.40
2023-04-22T15:18:36.241Z,20.40
2023-04-22T15:21:05.828Z,20.30
2023-04-22T15:23:33.152Z,20.30
2023-04-22T15:26:00.340Z,20.30
2023-04-22T15:28:27.378Z,20.20
2023-04-22T15:30:54.427Z,20.10
2023-04-22T15:33:21.532Z,20.10
2023-04-22T15:35:50.376Z,20.20
2023-04-22T15:38:17.753Z,20.20
2023-04-22T15:40:44.858Z,20.20
2023-04-22T15:43:12.068Z,20.10
2023-04-22T15:45:39.178Z,20.10
2023-04-22T15:48:06.296Z,20.10
2023-04-22T15:50:33.467Z,20.00
2023-04-22T15:53:00.528Z,20.00
2023-04-22T15:55:27.663Z,19.90
2023-04-22T15:57:54.868Z,19.80
2023-04-22T16:00:21.896Z,19.70
2023-04-22T16:02:55.535Z,19.70
2023-04-22T16:05:24.785Z,19.70
2023-04-22T16:07:53.143Z,19.70
2023-04-22T16:10:20.392Z,19.70
2023-04-22T16:12:47.486Z,19.60
2023-04-22T16:15:14.629Z,19.60
2023-04-22T16:17:43.180Z,19.60
2023-04-22T16:20:10.647Z,19.50
2023-04-22T16:22:37.671Z,19.40
2023-04-22T16:25:05.158Z,19.20
2023-04-22T16:27:32.573Z,19.10
2023-04-22T16:29:59.905Z,19.10
2023-04-22T16:32:28.550Z,19.00
2023-04-22T16:34:56.119Z,18.90
2023-04-22T16:37:23.254Z,18.80
2023-04-22T16:39:50.676Z,18.70
2023-04-22T16:42:17.758Z,18.70
2023-04-22T16:44:45.019Z,18.60
2023-04-22T16:47:12.278Z,18.50
2023-04-22T16:49:39.701Z,18.40
2023-04-22T16:52:06.929Z,18.40
2023-04-22T16:54:34.137Z,18.30
2023-04-22T16:57:02.849Z,18.30
2023-04-22T16:59:30.020Z,18.30
2023-04-22T17:01:57.384Z,18.20
2023-04-22T17:04:24.661Z,18.20
2023-04-22T17:06:51.829Z,18.20
2023-04-22T17:09:19.125Z,18.20
2023-04-22T17:11:46.160Z,18.10
2023-04-22T17:14:13.748Z,18.10
2023-04-22T17:16:40.906Z,18.00
2023-04-22T17:19:07.996Z,17.90
2023-04-22T17:21:35.145Z,17.80
2023-04-22T17:24:03.905Z,17.70
2023-04-22T17:26:30.964Z,17.60
2023-04-22T17:28:57.978Z,17.60
2023-04-22T17:31:25.257Z,17.50
2023-04-22T17:33:52.280Z,17.40
2023-04-22T17:36:20.161Z,17.30
2023-04-22T17:38:47.179Z,17.20
2023-04-22T17:41:14.356Z,17.20
2023-04-22T17:43:41.630Z,17.10
2023-04-22T17:46:09.174Z,17.00
2023-04-22T17:48:36.856Z,16.90
2023-04-22T17:51:07.187Z,16.90
2023-04-22T17:53:34.554Z,16.80
2023-04-22T17:56:01.580Z,16.80
2023-04-22T17:58:28.789Z,16.70
2023-04-22T18:00:58.607Z,16.70
2023-04-22T18:03:26.432Z,16.60
2023-04-22T18:05:53.603Z,16.50
2023-04-22T18:08:20.667Z,16.50
2023-04-22T18:10:48.006Z,16.40
2023-04-22T18:13:15.508Z,16.40
2023-04-22T18:15:42.590Z,16.40
2023-04-22T18:18:09.686Z,16.30
2023-04-22T18:20:36.889Z,16.30
2023-04-22T18:23:04.159Z,16.20
2023-04-22T18:25:31.354Z,16.20
2023-04-22T18:27:58.486Z,16.10
2023-04-22T18:30:25.607Z,16.00
2023-04-22T18:32:53.249Z,16.00
2023-04-22T18:35:20.855Z,15.90
2023-04-22T18:37:48.052Z,15.80
2023-04-22T18:40:15.190Z,15.70
2023-04-22T18:42:45.090Z,15.70
2023-04-22T18:45:15.642Z,15.70
2023-04-22T18:47:44.146Z,15.60
2023-04-22T18:50:11.534Z,15.50
2023-04-22T18:52:38.726Z,15.50
2023-04-22T18:55:06.568Z,15.40
2023-04-22T18:57:33.859Z,15.40
2023-04-22T19:00:01.050Z,15.30
2023-04-22T19:02:28.910Z,15.20
2023-04-22T19:04:56.846Z,15.20
2023-04-22T19:07:25.384Z,15.20
2023-04-22T19:09:52.880Z,15.10
2023-04-22T19:12:20.040Z,15.00
2023-04-22T19:14:48.361Z,15.00
2023-04-22T19:17:15.733Z,14.90
2023-04-22T19:19:43.925Z,14.90
2023-04-22T19:22:12.972Z,14.80
2023-04-22T19:24:40.213Z,14.80
2023-04-22T19:27:13.936Z,14.70
2023-04-22T19:29:51.400Z,14.70
2023-04-22T19:32:19.256Z,14.60
2023-04-22T19:34:48.147Z,14.60
2023-04-22T19:37:15.492Z,14.50
2023-04-22T19:39:43.619Z,14.50
2023-04-22T19:42:11.672Z,14.40
2023-04-22T19:44:41.279Z,14.40
2023-04-22T19:47:08.894Z,14.30
2023-04-22T19:49:36.721Z,14.30
2023-04-22T19:52:04.605Z,14.30
2023-04-22T19:54:32.988Z,14.20
2023-04-22T19:57:02.662Z,14.10
2023-04-22T19:59:32.049Z,14.10
2023-04-22T20:02:00.142Z,14.10
2023-04-22T20:04:28.558Z,14.00
2023-04-22T20:06:57.338Z,14.00
2023-04-22T20:09:27.021Z,14.00
2023-04-22T20:11:54.260Z,13.90
2023-04-22T20:14:23.085Z,13.90
2023-04-22T20:16:50.727Z,13.80
2023-04-22T20:19:18.441Z,13.80
2023-04-22T20:21:48.314Z,13.70
2023-04-22T20:24:19.991Z,13.70
2023-04-22T20:26:50.385Z,13.60
2023-04-22T20:29:22.337Z,13.60
2023-04-22T20:31:49.907Z,13.60
2023-04-22T20:34:17.398Z,13.50
2023-04-22T20:36:45.011Z,13.50
2023-04-22T20:39:14.507Z,13.50
2023-04-22T20:41:42.023Z,13.40
2023-04-22T20:44:09.406Z,13.40
2023-04-22T20:46:37.922Z,13.30
2023-04-22T20:49:05.158Z,13.30
2023-04-22T20:51:32.207Z,13.30
2023-04-22T20:53:59.363Z,13.20
2023-04-22T20:56:27.460Z,13.10
2023-04-22T20:58:54.460Z,13.10
2023-04-22T21:01:21.514Z,13.10
2023-04-22T21:03:52.657Z,13.10
2023-04-22T21:06:21.276Z,13.00
2023-04-22T21:08:49.875Z,13.00
2023-04-22T21:11:17.788Z,12.90
2023-04-22T21:13:45.216Z,12.90
2023-04-22T21:16:16.444Z,12.90
2023-04-22T21:18:44.853Z,12.90
2023-04-22T21:21:15.705Z,12.90
2023-04-22T21:23:43.152Z,12.90
2023-04-22T21:26:10.887Z,12.80
2023-04-22T21:28:39.217Z,12.80
2023-04-22T21:31:06.862Z,12.80
2023-04-22T21:33:34.081Z,12.80
2023-04-22T21:36:01.234Z,12.70
2023-04-22T21:38:29.203Z,12.70
2023-04-22T21:40:56.270Z,12.70
2023-04-22T21:43:23.510Z,12.60
2023-04-22T21:45:51.808Z,12.60
2023-04-22T21:48:19.064Z,12.60
2023-04-22T21:50:46.108Z,12.60
2023-04-22T21:53:13.206Z,12.50
2023-04-22T21:55:40.717Z,12.50
2023-04-22T21:58:08.302Z,12.50
2023-04-22T22:00:35.318Z,12.40
2023-04-22T22:03:02.688Z,12.40
2023-04-22T22:05:30.416Z,12.30
2023-04-22T22:07:57.661Z,12.30
2023-04-22T22:10:25.133Z,12.20
2023-04-22T22:12:52.134Z,12.20
2023-04-22T22:15:19.498Z,12.20
2023-04-22T22:17:46.889Z,12.20
2023-04-22T22:20:20.670Z,12.10
2023-04-22T22:22:48.199Z,12.10
2023-04-22T22:25:16.620Z,12.00
2023-04-22T22:27:49.587Z,12.00
2023-04-22T22:30:18.808Z,12.00
2023-04-22T22:32:46.518Z,12.00
2023-04-22T22:35:13.927Z,11.90
2023-04-22T22:37:41.449Z,11.90
2023-04-22T22:40:09.137Z,11.90
2023-04-22T22:42:36.303Z,11.80
2023-04-22T22:45:05.212Z,11.80
2023-04-22T22:47:32.875Z,11.80
2023-04-22T22:50:00.536Z,11.70
2023-04-22T22:52:27.702Z,11.70
2023-04-22T22:54:54.813Z,11.70
2023-04-22T22:57:21.908Z,11.60
2023-04-22T22:59:48.947Z,11.60
2023-04-22T23:02:16.099Z,11.60
2023-04-22T23:04:43.494Z,11.60
2023-04-22T23:07:10.846Z,11.60
2023-04-22T23:09:37.934Z,11.60
2023-04-22T23:12:05.631Z,11.60
2023-04-22T23:14:33.461Z,11.50
2023-04-22T23:17:00.665Z,11.50
2023-04-22T23:19:28.617Z,11.50
2023-04-22T23:21:56.559Z,11.40
2023-04-22T23:24:23.702Z,11.40
2023-04-22T23:26:51.085Z,11.30
2023-04-22T23:29:19.582Z,11.30
2023-04-22T23:31:49.027Z,11.30
2023-04-22T23:34:19.256Z,11.30
2023-04-22T23:36:46.930Z,11.20
2023-04-22T23:39:14.037Z,11.20
2023-04-22T23:41:40.966Z,11.20
2023-04-22T23:44:08.071Z,11.20
2023-04-22T23:46:35.830Z,11.20
2023-04-22T23:49:03.211Z,11.10
2023-04-22T23:51:30.315Z,11.00
2023-04-22T23:53:57.318Z,11.00
2023-04-22T23:56:24.634Z,11.00
2023-04-22T23:58:52.272Z,11.00
